createdAt,value
2022-08-05T00:00:23.205Z,0.00
2022-08-05T00:01:27.779Z,0.00
2022-08-05T00:02:23.262Z,0.00
2022-08-05T00:03:23.182Z,0.00
2022-08-05T00:04:23.170Z,0.00
2022-08-05T00:06:02.064Z,0.00
2022-08-05T00:06:30.761Z,0.00
2022-08-05T00:07:59.451Z,0.00
2022-08-05T00:08:34.823Z,0.00
2022-08-05T00:09:23.083Z,0.00
2022-08-05T00:10:27.247Z,0.00
2022-08-05T00:11:28.040Z,0.00
2022-08-05T00:12:23.049Z,0.00
2022-08-05T00:13:38.082Z,0.00
2022-08-05T00:14:27.505Z,0.00
2022-08-05T00:15:55.201Z,0.00
2022-08-05T00:16:35.909Z,0.00
2022-08-05T00:17:22.992Z,0.00
2022-08-05T00:18:22.987Z,0.00
2022-08-05T00:19:24.647Z,0.00
2022-08-05T00:20:22.932Z,0.00
2022-08-05T00:21:22.942Z,0.00
2022-08-05T00:22:22.967Z,0.00
2022-08-05T00:23:44.777Z,0.00
2022-08-05T00:24:24.822Z,0.00
2022-08-05T00:25:22.866Z,0.00
2022-08-05T00:26:22.892Z,0.00
2022-08-05T00:27:25.807Z,0.00
2022-08-05T00:28:29.675Z,0.00
2022-08-05T00:29:25.505Z,0.00
2022-08-05T00:30:29.060Z,0.00
2022-08-05T00:31:54.265Z,0.00
2022-08-05T00:32:22.798Z,0.00
2022-08-05T00:34:54.550Z,0.00
2022-08-05T00:35:09.530Z,0.00
2022-08-05T00:35:22.723Z,0.00
2022-08-05T00:37:11.496Z,0.00
2022-08-05T00:37:22.717Z,0.00
2022-08-05T00:38:28.758Z,0.00
2022-08-05T00:39:22.748Z,0.00
2022-08-05T00:40:27.236Z,0.00
2022-08-05T00:41:22.682Z,0.00
2022-08-05T00:42:32.095Z,0.00
2022-08-05T00:43:22.692Z,0.00
2022-08-05T00:44:23.215Z,0.00
2022-08-05T00:45:27.992Z,0.00
2022-08-05T00:46:42.535Z,0.00
2022-08-05T00:47:22.662Z,0.00
2022-08-05T00:48:27.482Z,0.00
2022-08-05T00:49:22.550Z,0.00
2022-08-05T00:50:25.101Z,0.00
2022-08-05T00:51:51.515Z,0.00
2022-08-05T00:52:28.611Z,0.00
2022-08-05T00:53:45.227Z,0.00
2022-08-05T00:54:22.504Z,0.00
2022-08-05T00:55:22.480Z,0.00
2022-08-05T00:56:22.979Z,0.00
2022-08-05T00:57:22.948Z,0.00
2022-08-05T00:58:27.529Z,0.00
2022-08-05T00:59:22.430Z,0.00
2022-08-05T01:00:22.413Z,0.00
2022-08-05T01:01:43.008Z,0.00
2022-08-05T01:02:22.376Z,0.00
2022-08-05T01:03:23.450Z,0.00
2022-08-05T01:04:29.680Z,0.00
2022-08-05T01:05:22.339Z,0.00
2022-08-05T01:06:22.326Z,0.00
2022-08-05T01:07:22.312Z,0.00
2022-08-05T01:08:30.251Z,0.00
2022-08-05T01:09:22.309Z,0.00
2022-08-05T01:10:22.276Z,0.00
2022-08-05T01:11:33.540Z,0.00
2022-08-05T01:12:22.301Z,0.00
2022-08-05T01:13:27.346Z,0.00
2022-08-05T01:14:27.776Z,0.00
2022-08-05T01:15:36.213Z,0.00
2022-08-05T01:16:26.293Z,0.00
2022-08-05T01:17:22.438Z,0.00
2022-08-05T01:18:22.177Z,0.00
2022-08-05T01:19:22.283Z,0.00
2022-08-05T01:20:22.295Z,0.00
2022-08-05T01:21:23.018Z,0.00
2022-08-05T01:22:23.977Z,0.00
2022-08-05T01:23:23.487Z,0.00
2022-08-05T01:24:22.163Z,0.00
2022-08-05T01:25:22.101Z,0.00
2022-08-05T01:26:22.101Z,0.00
2022-08-05T01:27:22.268Z,0.00
2022-08-05T01:28:22.076Z,0.00
2022-08-05T01:29:23.214Z,0.00
2022-08-05T01:30:34.716Z,0.00
2022-08-05T01:31:22.004Z,0.00
2022-08-05T01:32:22.013Z,0.00
2022-08-05T01:33:21.964Z,0.00
2022-08-05T01:34:21.973Z,0.00
2022-08-05T01:35:50.780Z,0.00
2022-08-05T01:36:28.183Z,0.00
2022-08-05T01:37:25.150Z,0.00
2022-08-05T01:38:24.649Z,0.00
2022-08-05T01:39:45.866Z,0.00
2022-08-05T01:40:21.924Z,0.00
2022-08-05T01:41:22.057Z,0.00
2022-08-05T01:42:21.859Z,0.00
2022-08-05T01:43:21.980Z,0.00
2022-08-05T01:44:21.869Z,0.00
2022-08-05T01:45:21.823Z,0.00
2022-08-05T01:46:43.184Z,0.00
2022-08-05T01:47:22.123Z,0.00
2022-08-05T01:48:21.780Z,0.00
2022-08-05T01:49:23.918Z,0.00
2022-08-05T01:50:28.854Z,0.00
2022-08-05T01:51:21.756Z,0.00
2022-08-05T01:52:21.739Z,0.00
2022-08-05T01:53:57.886Z,0.00
2022-08-05T01:54:25.535Z,0.00
2022-08-05T01:55:21.682Z,0.00
2022-08-05T01:58:29.707Z,0.00
2022-08-05T01:58:45.760Z,0.00
2022-08-05T01:58:51.644Z,0.00
2022-08-05T01:59:51.190Z,0.00
2022-08-05T02:00:51.132Z,0.00
2022-08-05T02:01:51.180Z,0.00
2022-08-05T02:02:54.517Z,0.00
2022-08-05T02:03:51.106Z,0.00
2022-08-05T02:04:51.117Z,0.00
2022-08-05T02:05:51.073Z,0.00
2022-08-05T02:06:51.048Z,0.00
2022-08-05T02:07:57.897Z,0.00
2022-08-05T02:08:54.869Z,0.00
2022-08-05T02:09:51.152Z,0.00
2022-08-05T02:10:51.030Z,0.00
2022-08-05T02:11:52.489Z,0.00
2022-08-05T02:12:51.176Z,0.00
2022-08-05T02:13:53.749Z,0.00
2022-08-05T02:14:50.943Z,0.00
2022-08-05T02:15:50.918Z,0.00
2022-08-05T02:16:52.258Z,0.00
2022-08-05T02:18:31.604Z,0.00
2022-08-05T02:18:50.911Z,0.00
2022-08-05T02:19:50.936Z,0.00
2022-08-05T02:20:50.857Z,0.00
2022-08-05T02:21:50.863Z,0.00
2022-08-05T02:22:50.838Z,0.00
2022-08-05T02:23:50.828Z,0.00
2022-08-05T02:24:51.459Z,0.00
2022-08-05T02:25:50.805Z,0.00
2022-08-05T02:26:53.898Z,0.00
2022-08-05T02:27:59.698Z,0.00
2022-08-05T02:28:50.777Z,0.00
2022-08-05T02:29:59.038Z,0.00
2022-08-05T02:30:54.164Z,0.00
2022-08-05T02:31:50.727Z,0.00
2022-08-05T02:32:50.737Z,0.00
2022-08-05T02:33:57.325Z,0.00
2022-08-05T02:34:54.674Z,0.00
2022-08-05T02:35:58.944Z,0.00
2022-08-05T02:36:50.679Z,0.00
2022-08-05T02:37:53.985Z,0.00
2022-08-05T02:38:53.601Z,0.00
2022-08-05T02:39:51.688Z,0.00
2022-08-05T02:40:50.598Z,0.00
2022-08-05T02:42:00.614Z,0.00
2022-08-05T02:42:52.813Z,0.00
2022-08-05T02:44:06.431Z,0.00
2022-08-05T02:44:50.545Z,0.00
2022-08-05T02:45:52.239Z,0.00
2022-08-05T02:46:58.498Z,0.00
2022-08-05T02:48:06.901Z,0.00
2022-08-05T02:48:50.508Z,0.00
2022-08-05T02:49:50.482Z,0.00
2022-08-05T02:50:50.465Z,0.00
2022-08-05T02:52:04.088Z,0.00
2022-08-05T02:52:50.464Z,4.00
2022-08-05T02:53:50.430Z,4.00
2022-08-05T02:54:51.117Z,0.00
2022-08-05T02:55:54.671Z,4.00
2022-08-05T02:56:50.382Z,4.00
2022-08-05T02:58:10.735Z,4.00
2022-08-05T02:58:51.629Z,4.00
2022-08-05T02:59:52.064Z,4.00
2022-08-05T03:00:50.344Z,4.00
2022-08-05T03:01:50.377Z,4.00
2022-08-05T03:02:50.341Z,8.00
2022-08-05T03:04:02.821Z,8.00
2022-08-05T03:04:53.329Z,8.00
2022-08-05T03:06:55.756Z,12.00
2022-08-05T03:07:03.512Z,12.00
2022-08-05T03:08:07.357Z,16.00
2022-08-05T03:08:52.179Z,16.00
2022-08-05T03:09:51.966Z,20.00
2022-08-05T03:11:41.156Z,24.00
2022-08-05T03:11:58.674Z,28.00
2022-08-05T03:12:51.742Z,28.00
2022-08-05T03:13:51.731Z,32.00
2022-08-05T03:14:50.146Z,36.00
2022-08-05T03:15:50.147Z,44.00
2022-08-05T03:16:53.369Z,48.00
2022-08-05T03:17:50.120Z,56.00
2022-08-05T03:18:50.104Z,64.00
2022-08-05T03:19:50.090Z,76.00
2022-08-05T03:20:50.384Z,80.00
2022-08-05T03:21:50.164Z,92.00
2022-08-05T03:22:50.599Z,100.00
2022-08-05T03:23:50.027Z,112.00
2022-08-05T03:24:50.900Z,124.00
2022-08-05T03:26:04.761Z,136.00
2022-08-05T03:26:50.010Z,152.00
2022-08-05T03:27:59.253Z,160.00
2022-08-05T03:28:49.957Z,176.00
2022-08-05T03:30:08.264Z,188.00
2022-08-05T03:30:50.905Z,204.00
2022-08-05T03:31:57.107Z,220.00
2022-08-05T03:32:49.907Z,236.00
2022-08-05T03:33:52.750Z,252.00
2022-08-05T03:34:50.986Z,268.00
2022-08-05T03:35:49.992Z,284.00
2022-08-05T03:36:49.873Z,304.00
2022-08-05T03:37:49.880Z,324.00
2022-08-05T03:38:53.230Z,344.00
2022-08-05T03:39:59.487Z,368.00
2022-08-05T03:40:49.878Z,388.00
2022-08-05T03:41:49.810Z,412.00
2022-08-05T03:42:52.150Z,440.00
2022-08-05T03:44:08.597Z,464.00
2022-08-05T03:44:49.766Z,496.00
2022-08-05T03:45:57.910Z,520.00
2022-08-05T03:46:49.727Z,544.00
2022-08-05T03:47:49.748Z,568.00
2022-08-05T03:48:49.711Z,588.00
2022-08-05T03:49:51.870Z,604.00
2022-08-05T03:50:49.666Z,624.00
2022-08-05T03:52:48.289Z,648.00
2022-08-05T03:56:05.686Z,668.00
2022-08-05T03:56:27.903Z,744.00
2022-08-05T03:56:36.372Z,768.00
2022-08-05T03:57:29.085Z,796.00
2022-08-05T03:58:28.915Z,828.00
2022-08-05T03:59:25.826Z,860.00
2022-08-05T04:00:25.798Z,896.00
2022-08-05T04:01:25.862Z,920.00
2022-08-05T04:02:38.681Z,956.00
2022-08-05T04:03:28.864Z,1000.00
2022-08-05T04:04:26.493Z,1044.00
2022-08-05T04:05:25.756Z,1092.00
2022-08-05T04:06:25.732Z,1152.00
2022-08-05T04:07:25.887Z,1208.00
2022-08-05T04:08:34.712Z,1264.00
2022-08-05T04:09:26.114Z,1324.00
2022-08-05T04:10:27.960Z,1376.00
2022-08-05T04:11:25.667Z,1436.00
2022-08-05T04:12:25.667Z,1492.00
2022-08-05T04:13:25.652Z,1548.00
2022-08-05T04:14:30.116Z,1612.00
2022-08-05T04:15:25.613Z,1676.00
2022-08-05T04:16:32.299Z,1748.00
2022-08-05T04:17:25.946Z,1816.00
2022-08-05T04:18:25.719Z,1880.00
2022-08-05T04:19:25.573Z,1944.00
2022-08-05T04:20:25.552Z,1996.00
2022-08-05T04:22:09.084Z,2036.00
2022-08-05T04:22:25.518Z,2072.00
2022-08-05T04:24:01.091Z,2120.00
2022-08-05T04:24:25.492Z,2176.00
2022-08-05T04:25:56.948Z,2244.00
2022-08-05T04:26:25.491Z,2328.00
2022-08-05T04:27:33.122Z,2440.00
2022-08-05T04:28:28.502Z,2600.00
2022-08-05T04:29:27.180Z,2764.00
2022-08-05T04:30:26.550Z,2912.00
2022-08-05T04:31:27.715Z,3040.00
2022-08-05T04:32:31.039Z,3156.00
2022-08-05T04:33:54.875Z,3252.00
2022-08-05T04:34:32.561Z,3344.00
2022-08-05T04:35:25.349Z,3452.00
2022-08-05T04:36:45.500Z,3576.00
2022-08-05T04:38:02.932Z,3704.00
2022-08-05T04:38:39.714Z,3760.00
2022-08-05T04:39:25.364Z,3784.00
2022-08-05T04:40:25.278Z,3744.00
2022-08-05T04:41:34.159Z,3712.00
2022-08-05T04:42:25.618Z,3708.00
2022-08-05T04:43:26.046Z,3772.00
2022-08-05T04:44:29.846Z,3860.00
2022-08-05T04:45:30.989Z,3976.00
2022-08-05T04:46:27.923Z,4136.00
2022-08-05T04:47:25.528Z,4268.00
2022-08-05T04:48:27.854Z,4376.00
2022-08-05T04:49:38.689Z,4456.00
2022-08-05T04:50:37.233Z,4536.00
2022-08-05T04:51:25.138Z,4636.00
2022-08-05T04:52:27.601Z,4728.00
2022-08-05T04:53:25.129Z,4824.00
2022-08-05T04:54:25.094Z,4920.00
2022-08-05T04:56:00.106Z,5044.00
2022-08-05T04:56:34.451Z,5220.00
2022-08-05T04:57:28.365Z,5452.00
2022-08-05T04:58:25.062Z,5712.00
2022-08-05T04:59:38.546Z,5960.00
2022-08-05T05:00:25.022Z,6164.00
2022-08-05T05:02:06.139Z,6348.00
2022-08-05T05:02:37.540Z,6448.00
2022-08-05T05:03:24.991Z,6528.00
2022-08-05T05:04:24.969Z,6612.00
2022-08-05T05:05:28.868Z,6752.00
2022-08-05T05:06:39.017Z,6864.00
2022-08-05T05:07:29.769Z,6844.00
2022-08-05T05:08:26.594Z,6784.00
2022-08-05T05:09:24.934Z,6732.00
2022-08-05T05:10:24.899Z,6616.00
2022-08-05T05:11:24.868Z,6480.00
2022-08-05T05:12:24.854Z,6332.00
2022-08-05T05:13:24.840Z,6224.00
2022-08-05T05:14:27.909Z,6160.00
2022-08-05T05:15:57.291Z,6132.00
2022-08-05T05:16:24.834Z,6116.00
2022-08-05T05:17:55.949Z,6088.00
2022-08-05T05:18:31.610Z,6064.00
2022-08-05T05:19:26.589Z,6016.00
2022-08-05T05:20:28.519Z,5956.00
2022-08-05T05:21:27.200Z,5868.00
2022-08-05T05:22:26.575Z,5796.00
2022-08-05T05:23:24.735Z,5836.00
2022-08-05T05:24:56.200Z,5976.00
2022-08-05T05:25:32.547Z,6108.00
2022-08-05T05:26:28.571Z,6276.00
2022-08-05T05:27:24.951Z,6392.00
2022-08-05T05:28:24.855Z,6448.00
2022-08-05T05:29:24.656Z,6448.00
2022-08-05T05:30:29.063Z,6428.00
2022-08-05T05:31:24.642Z,6372.00
2022-08-05T05:32:24.618Z,6332.00
2022-08-05T05:33:24.609Z,6356.00
2022-08-05T05:34:27.037Z,6336.00
2022-08-05T05:35:24.557Z,6344.00
2022-08-05T05:36:24.537Z,6440.00
2022-08-05T05:37:37.327Z,6472.00
2022-08-05T05:38:27.533Z,6380.00
2022-08-05T05:39:24.584Z,6292.00
2022-08-05T05:40:26.040Z,6172.00
2022-08-05T05:41:24.501Z,6060.00
2022-08-05T05:42:24.486Z,6088.00
2022-08-05T05:43:56.382Z,6208.00
2022-08-05T05:44:36.611Z,6400.00
2022-08-05T05:45:24.673Z,6652.00
2022-08-05T05:46:24.429Z,7160.00
2022-08-05T05:47:30.199Z,7732.00
2022-08-05T05:48:27.762Z,8116.00
2022-08-05T05:49:24.393Z,8304.00
2022-08-05T05:50:24.356Z,8440.00
2022-08-05T05:51:24.349Z,8564.00
2022-08-05T05:52:28.300Z,8600.00
2022-08-05T05:53:24.338Z,8784.00
2022-08-05T05:54:49.687Z,8792.00
2022-08-05T05:55:24.326Z,8676.00
2022-08-05T05:56:26.114Z,8608.00
2022-08-05T05:57:24.444Z,8512.00
2022-08-05T05:58:31.762Z,8236.00
2022-08-05T05:59:24.252Z,7856.00
2022-08-05T06:00:27.544Z,7596.00
2022-08-05T06:01:24.229Z,7364.00
2022-08-05T06:02:32.436Z,7016.00
2022-08-05T06:03:40.039Z,6720.00
2022-08-05T06:04:24.247Z,6464.00
2022-08-05T06:05:24.201Z,6340.00
2022-08-05T06:06:24.153Z,6224.00
2022-08-05T06:07:24.414Z,6144.00
2022-08-05T06:08:32.600Z,6144.00
2022-08-05T06:09:27.475Z,6120.00
2022-08-05T06:10:24.128Z,6372.00
2022-08-05T06:11:24.157Z,6840.00
2022-08-05T06:12:24.094Z,7424.00
2022-08-05T06:13:24.069Z,8084.00
2022-08-05T06:14:24.048Z,8712.00
2022-08-05T06:15:24.506Z,9324.00
2022-08-05T06:16:37.183Z,9776.00
2022-08-05T06:17:24.627Z,10088.00
2022-08-05T06:18:31.051Z,10324.00
2022-08-05T06:19:34.009Z,10456.00
2022-08-05T06:20:24.035Z,10440.00
2022-08-05T06:21:24.030Z,10388.00
2022-08-05T06:22:23.972Z,10160.00
2022-08-05T06:23:23.939Z,10000.00
2022-08-05T06:24:25.740Z,10016.00
2022-08-05T06:25:59.302Z,9864.00
2022-08-05T06:26:25.094Z,9536.00
2022-08-05T06:28:11.815Z,9556.00
2022-08-05T06:28:28.501Z,9824.00
2022-08-05T06:29:48.864Z,10392.00
2022-08-05T06:30:23.844Z,11412.00
2022-08-05T06:31:30.480Z,12084.00
2022-08-05T06:32:25.889Z,12260.00
2022-08-05T06:34:00.484Z,12360.00
2022-08-05T06:34:23.820Z,12020.00
2022-08-05T06:36:03.485Z,11376.00
2022-08-05T06:36:26.016Z,10884.00
2022-08-05T06:37:55.817Z,10496.00
2022-08-05T06:38:36.772Z,10712.00
2022-08-05T06:39:24.685Z,11084.00
2022-08-05T06:40:28.067Z,11572.00
2022-08-05T06:41:23.727Z,12240.00
2022-08-05T06:42:23.686Z,12844.00
2022-08-05T06:43:57.743Z,13056.00
2022-08-05T06:44:23.689Z,13344.00
2022-08-05T06:46:02.915Z,13224.00
2022-08-05T06:46:23.634Z,13684.00
2022-08-05T06:48:11.634Z,14348.00
2022-08-05T06:48:58.570Z,14192.00
2022-08-05T06:50:01.864Z,13940.00
2022-08-05T06:50:23.751Z,13624.00
2022-08-05T06:51:29.296Z,13240.00
2022-08-05T06:52:37.051Z,12832.00
2022-08-05T06:53:28.565Z,12296.00
2022-08-05T06:54:25.800Z,12468.00
2022-08-05T06:55:23.507Z,13196.00
2022-08-05T06:56:26.313Z,14272.00
2022-08-05T06:57:57.427Z,15560.00
2022-08-05T06:58:29.682Z,16524.00
2022-08-05T06:59:23.497Z,17440.00
2022-08-05T07:00:24.709Z,18240.00
2022-08-05T07:01:23.546Z,19232.00
2022-08-05T07:02:23.461Z,19680.00
2022-08-05T07:03:32.310Z,20512.00
2022-08-05T07:04:23.439Z,20640.00
2022-08-05T07:05:37.198Z,20416.00
2022-08-05T07:06:23.404Z,19808.00
2022-08-05T07:07:35.496Z,18752.00
2022-08-05T07:08:23.393Z,18112.00
2022-08-05T07:09:24.899Z,17824.00
2022-08-05T07:10:23.369Z,17792.00
2022-08-05T07:11:25.510Z,17632.00
2022-08-05T07:12:23.309Z,16568.00
2022-08-05T07:13:37.228Z,15432.00
2022-08-05T07:14:29.538Z,14600.00
2022-08-05T07:15:34.324Z,14372.00
2022-08-05T07:17:56.597Z,15060.00
2022-08-05T07:18:08.445Z,16128.00
2022-08-05T07:18:28.936Z,16712.00
2022-08-05T07:20:10.508Z,17216.00
2022-08-05T07:20:37.052Z,17216.00
2022-08-05T07:21:25.897Z,17004.00
2022-08-05T07:22:28.373Z,17568.00
2022-08-05T07:23:26.227Z,17952.00
2022-08-05T07:24:23.142Z,18400.00
2022-08-05T07:25:55.217Z,18848.00
2022-08-05T07:26:25.652Z,19360.00
2022-08-05T07:27:23.289Z,20352.00
2022-08-05T07:28:23.096Z,20640.00
2022-08-05T07:30:22.305Z,20224.00
2022-08-05T07:30:38.377Z,18976.00
2022-08-05T07:31:40.636Z,18336.00
2022-08-05T07:32:26.127Z,18208.00
2022-08-05T07:33:36.834Z,18336.00
2022-08-05T07:34:28.450Z,18752.00
2022-08-05T07:36:01.625Z,19392.00
2022-08-05T07:36:24.052Z,19776.00
2022-08-05T07:37:23.316Z,20192.00
2022-08-05T07:38:32.284Z,20416.00
2022-08-05T07:39:24.807Z,20256.00
2022-08-05T07:40:26.739Z,20064.00
2022-08-05T07:42:08.364Z,19648.00
2022-08-05T07:42:33.384Z,19168.00
2022-08-05T07:43:22.929Z,18368.00
2022-08-05T07:44:22.941Z,17312.00
2022-08-05T07:45:56.608Z,16392.00
2022-08-05T07:46:25.351Z,16244.00
2022-08-05T07:47:23.091Z,17056.00
2022-08-05T07:49:01.013Z,18048.00
2022-08-05T07:49:22.859Z,19232.00
2022-08-05T07:50:28.934Z,20320.00
2022-08-05T07:51:23.629Z,21248.00
2022-08-05T07:52:23.900Z,21472.00
2022-08-05T07:53:22.778Z,21184.00
2022-08-05T07:54:23.232Z,20480.00
2022-08-05T07:56:04.905Z,19616.00
2022-08-05T07:57:00.887Z,18912.00
2022-08-05T07:57:56.339Z,18528.00
2022-08-05T07:58:58.996Z,18112.00
2022-08-05T07:59:23.373Z,18176.00
2022-08-05T08:00:22.702Z,18112.00
2022-08-05T08:01:22.732Z,18080.00
2022-08-05T08:02:22.694Z,17536.00
2022-08-05T08:03:22.672Z,20224.00
2022-08-05T08:04:34.347Z,16220.00
2022-08-05T08:05:22.659Z,14928.00
2022-08-05T08:06:22.655Z,13704.00
2022-08-05T08:07:23.007Z,12720.00
2022-08-05T08:08:22.597Z,11408.00
2022-08-05T08:09:22.928Z,10004.00
2022-08-05T08:10:22.561Z,9056.00
2022-08-05T08:11:27.754Z,8344.00
2022-08-05T08:12:35.210Z,7784.00
2022-08-05T08:13:28.825Z,7664.00
2022-08-05T08:14:22.525Z,8004.00
2022-08-05T08:16:35.948Z,8928.00
2022-08-05T08:16:55.904Z,10056.00
2022-08-05T08:17:22.918Z,10916.00
2022-08-05T08:18:22.465Z,11544.00
2022-08-05T08:20:22.066Z,12544.00
2022-08-05T08:21:02.343Z,13648.00
2022-08-05T08:21:22.478Z,15304.00
2022-08-05T08:22:22.454Z,17728.00
2022-08-05T08:24:03.591Z,20064.00
2022-08-05T08:24:22.414Z,22048.00
2022-08-05T08:25:26.519Z,23072.00
2022-08-05T08:26:26.895Z,26528.00
2022-08-05T08:27:22.661Z,27488.00
2022-08-05T08:28:36.631Z,28352.00
2022-08-05T08:30:04.280Z,23584.00
2022-08-05T08:30:32.287Z,19680.00
2022-08-05T08:31:22.308Z,16176.00
2022-08-05T08:32:27.973Z,13528.00
2022-08-05T08:33:22.254Z,11936.00
2022-08-05T08:34:30.256Z,10528.00
2022-08-05T08:35:22.246Z,9052.00
2022-08-05T08:36:37.584Z,7708.00
2022-08-05T08:37:27.842Z,7112.00
2022-08-05T08:38:35.486Z,6656.00
2022-08-05T08:39:22.228Z,6084.00
2022-08-05T08:40:22.184Z,5740.00
2022-08-05T08:41:22.163Z,5676.00
2022-08-05T08:42:33.801Z,5916.00
2022-08-05T08:44:57.933Z,6264.00
2022-08-05T08:45:29.623Z,6912.00
2022-08-05T08:45:35.832Z,7580.00
2022-08-05T08:46:35.856Z,7796.00
2022-08-05T08:48:06.775Z,7756.00
2022-08-05T08:48:42.883Z,7664.00
2022-08-05T08:50:13.106Z,7584.00
2022-08-05T08:51:04.108Z,7364.00
2022-08-05T08:52:06.144Z,6864.00
2022-08-05T08:52:35.758Z,6204.00
2022-08-05T08:53:35.709Z,5520.00
2022-08-05T08:54:36.455Z,5420.00
2022-08-05T08:56:04.899Z,5628.00
2022-08-05T08:56:35.696Z,5744.00
2022-08-05T08:57:42.355Z,5900.00
2022-08-05T08:58:43.524Z,6004.00
2022-08-05T08:59:35.673Z,5992.00
2022-08-05T09:00:35.855Z,5800.00
2022-08-05T09:01:35.639Z,5476.00
2022-08-05T09:02:35.712Z,5396.00
2022-08-05T09:03:40.361Z,5560.00
2022-08-05T09:04:35.583Z,5892.00
2022-08-05T09:05:38.847Z,6284.00
2022-08-05T09:06:36.327Z,6120.00
2022-08-05T09:07:39.878Z,5812.00
2022-08-05T09:08:35.547Z,6084.00
2022-08-05T09:09:35.886Z,5824.00
2022-08-05T09:10:35.519Z,5324.00
2022-08-05T09:11:51.414Z,5316.00
2022-08-05T09:12:35.771Z,5392.00
2022-08-05T09:14:09.232Z,5944.00
2022-08-05T09:15:04.788Z,7148.00
2022-08-05T09:15:36.954Z,8688.00
2022-08-05T09:16:35.420Z,10156.00
2022-08-05T09:17:42.498Z,11304.00
2022-08-05T09:18:37.955Z,11988.00
2022-08-05T09:19:36.638Z,12068.00
2022-08-05T09:20:37.468Z,10808.00
2022-08-05T09:22:21.939Z,9232.00
2022-08-05T09:22:35.923Z,8600.00
2022-08-05T09:23:43.308Z,8208.00
2022-08-05T09:24:35.342Z,7576.00
2022-08-05T09:26:02.468Z,7020.00
2022-08-05T09:26:35.312Z,7124.00
2022-08-05T09:28:04.384Z,7540.00
2022-08-05T09:28:35.331Z,7392.00
2022-08-05T09:29:35.271Z,6432.00
2022-08-05T09:30:35.285Z,6488.00
2022-08-05T09:32:39.967Z,7048.00
2022-08-05T09:32:47.603Z,7412.00
2022-08-05T09:33:35.452Z,7840.00
2022-08-05T09:34:35.209Z,8356.00
2022-08-05T09:35:35.194Z,8340.00
2022-08-05T09:36:35.179Z,8584.00
2022-08-05T09:38:17.510Z,8632.00
2022-08-05T09:38:35.146Z,8168.00
2022-08-05T09:39:44.694Z,7520.00
2022-08-05T09:40:35.111Z,7252.00
2022-08-05T09:41:39.107Z,7908.00
2022-08-05T09:42:35.402Z,9180.00
2022-08-05T09:43:40.834Z,10960.00
2022-08-05T09:44:35.172Z,12140.00
2022-08-05T09:46:06.696Z,10200.00
2022-08-05T09:46:35.234Z,7640.00
2022-08-05T09:47:55.276Z,5800.00
2022-08-05T09:48:35.029Z,4644.00
2022-08-05T09:49:40.473Z,4132.00
2022-08-05T09:50:38.822Z,3916.00
2022-08-05T09:51:36.619Z,3832.00
2022-08-05T09:52:35.015Z,3896.00
2022-08-05T09:53:54.313Z,3892.00
2022-08-05T09:54:34.949Z,3756.00
2022-08-05T09:55:58.238Z,3780.00
2022-08-05T09:56:34.931Z,3884.00
2022-08-05T09:57:35.337Z,4140.00
2022-08-05T09:58:34.890Z,4640.00
2022-08-05T09:59:37.164Z,5096.00
2022-08-05T10:00:34.890Z,5640.00
2022-08-05T10:01:34.839Z,6360.00
2022-08-05T10:02:34.869Z,6744.00
2022-08-05T10:03:56.935Z,7116.00
2022-08-05T10:04:34.947Z,7200.00
2022-08-05T10:05:34.786Z,6504.00
2022-08-05T10:06:34.790Z,5660.00
2022-08-05T10:08:34.512Z,5160.00
2022-08-05T10:08:42.396Z,4720.00
2022-08-05T10:09:45.023Z,4316.00
2022-08-05T10:10:34.737Z,4228.00
2022-08-05T10:11:35.256Z,4352.00
2022-08-05T10:12:35.280Z,4600.00
2022-08-05T10:13:45.697Z,4868.00
2022-08-05T10:14:34.691Z,4880.00
2022-08-05T10:15:34.675Z,4788.00
2022-08-05T10:16:41.751Z,4948.00
2022-08-05T10:17:37.782Z,5440.00
2022-08-05T10:18:34.625Z,6488.00
2022-08-05T10:20:04.305Z,8340.00
2022-08-05T10:20:34.587Z,10480.00
2022-08-05T10:21:35.369Z,12884.00
2022-08-05T10:22:35.087Z,15048.00
2022-08-05T10:23:59.799Z,15980.00
2022-08-05T10:24:34.546Z,16800.00
2022-08-05T10:25:34.521Z,17792.00
2022-08-05T10:26:34.514Z,18720.00
2022-08-05T10:28:13.434Z,20224.00
2022-08-05T10:28:34.542Z,22016.00
2022-08-05T10:30:41.212Z,21888.00
2022-08-05T10:33:02.007Z,20864.00
2022-08-05T10:33:09.355Z,14592.00
2022-08-05T10:34:07.042Z,11900.00
2022-08-05T10:35:05.231Z,9904.00
2022-08-05T10:36:05.124Z,8844.00
2022-08-05T10:37:05.098Z,7860.00
2022-08-05T10:38:05.097Z,7680.00
2022-08-05T10:39:11.737Z,8972.00
2022-08-05T10:40:18.189Z,11512.00
2022-08-05T10:41:05.142Z,13836.00
2022-08-05T10:42:05.043Z,15076.00
2022-08-05T10:43:05.022Z,15568.00
2022-08-05T10:44:05.031Z,15452.00
2022-08-05T10:45:21.291Z,13804.00
2022-08-05T10:46:06.756Z,12088.00
2022-08-05T10:47:04.970Z,11224.00
2022-08-05T10:48:31.478Z,11004.00
2022-08-05T10:49:08.050Z,10648.00
2022-08-05T10:50:20.493Z,10464.00
2022-08-05T10:51:04.931Z,9896.00
2022-08-05T10:52:05.283Z,9136.00
2022-08-05T10:53:04.909Z,8640.00
2022-08-05T10:54:05.966Z,8592.00
2022-08-05T10:55:04.896Z,8412.00
2022-08-05T10:56:21.151Z,8180.00
2022-08-05T10:57:04.844Z,7824.00
2022-08-05T10:58:04.826Z,7488.00
2022-08-05T10:59:12.282Z,7184.00
2022-08-05T11:00:09.095Z,6888.00
2022-08-05T11:01:04.777Z,6708.00
2022-08-05T11:02:05.597Z,6424.00
2022-08-05T11:03:23.831Z,6284.00
2022-08-05T11:04:04.763Z,6144.00
2022-08-05T11:05:04.738Z,5852.00
2022-08-05T11:06:04.766Z,5828.00
2022-08-05T11:07:04.712Z,6064.00
2022-08-05T11:08:21.657Z,6524.00
2022-08-05T11:09:04.699Z,7328.00
2022-08-05T11:10:10.009Z,8740.00
2022-08-05T11:11:14.549Z,10512.00
2022-08-05T11:12:04.663Z,12784.00
2022-08-05T11:13:04.618Z,14944.00
2022-08-05T11:14:04.622Z,15896.00
2022-08-05T11:15:19.857Z,16780.00
2022-08-05T11:16:04.609Z,21280.00
2022-08-05T11:17:14.232Z,44864.00
2022-08-05T11:18:05.917Z,50016.00
2022-08-05T11:20:11.015Z,62976.00
2022-08-05T11:20:22.360Z,23296.00
2022-08-05T11:21:06.504Z,18400.00
2022-08-05T11:22:04.516Z,16352.00
2022-08-05T11:23:09.007Z,18176.00
2022-08-05T11:24:29.985Z,26368.00
2022-08-05T11:26:03.589Z,38400.00
2022-08-05T11:26:10.953Z,45952.00
2022-08-05T11:27:04.450Z,42656.00
2022-08-05T11:28:04.421Z,41216.00
2022-08-05T11:29:12.053Z,37792.00
2022-08-05T11:30:04.398Z,43680.00
2022-08-05T11:31:06.455Z,81600.00
2022-08-05T11:32:04.432Z,111904.00
2022-08-05T11:33:04.380Z,97056.00
2022-08-05T11:34:04.347Z,46016.00
2022-08-05T11:35:04.380Z,104992.00
2022-08-05T11:36:08.728Z,97088.00
2022-08-05T11:37:55.121Z,103488.00
2022-08-05T11:38:45.536Z,87200.00
2022-08-05T11:39:04.391Z,42784.00
2022-08-05T11:40:04.577Z,55360.00
2022-08-05T11:41:35.555Z,40384.00
2022-08-05T11:42:05.682Z,46176.00
2022-08-05T11:43:04.278Z,35264.00
2022-08-05T11:44:06.462Z,31936.00
2022-08-05T11:45:05.320Z,29792.00
2022-08-05T11:46:27.546Z,31392.00
2022-08-05T11:47:10.440Z,42016.00
2022-08-05T11:48:04.206Z,35680.00
2022-08-05T11:49:04.177Z,37056.00
2022-08-05T11:50:04.172Z,48896.00
2022-08-05T11:51:04.182Z,107584.00
2022-08-05T11:52:11.197Z,90496.00
2022-08-05T11:53:04.143Z,28288.00
2022-08-05T11:54:04.117Z,22208.00
2022-08-05T11:55:07.564Z,20512.00
2022-08-05T11:56:04.123Z,22112.00
2022-08-05T11:57:07.703Z,23296.00
2022-08-05T11:58:10.417Z,25408.00
2022-08-05T11:59:04.076Z,32928.00
2022-08-05T12:00:04.050Z,34976.00
2022-08-05T12:01:04.604Z,31136.00
2022-08-05T12:02:04.007Z,53600.00
2022-08-05T12:03:04.079Z,36768.00
2022-08-05T12:04:04.062Z,58912.00
2022-08-05T12:05:07.662Z,61440.00
2022-08-05T12:06:06.017Z,47328.00
2022-08-05T12:07:03.949Z,100128.00
2022-08-05T12:08:11.026Z,96480.00
2022-08-05T12:09:03.969Z,67552.00
2022-08-05T12:10:09.507Z,94016.00
2022-08-05T12:11:05.799Z,36416.00
2022-08-05T12:12:03.906Z,40256.00
2022-08-05T12:13:03.873Z,69920.00
2022-08-05T12:14:04.058Z,62912.00
2022-08-05T12:15:03.924Z,91456.00
2022-08-05T12:16:03.881Z,50720.00
2022-08-05T12:17:03.882Z,109472.00
2022-08-05T12:18:10.491Z,52992.00
2022-08-05T12:19:03.847Z,36032.00
2022-08-05T12:20:16.846Z,68800.00
2022-08-05T12:21:03.832Z,102336.00